Time;durP1;ratioP1;P1;durP2;ratioP2;P2;SDS_P1;SDS_P2;PMS_P1;PMS_P2;Temp;Humidity;BMP_temperature;BMP_pressure;BME280_temperature;BME280_humidity;BME280_pressure;Samples;Min_cycle;Max_cycle;Signal;HPM_P1;HPM_P2
2021/06/04 00:00:32;;;;;;;2.62;2.15;;;;;;;16.31;47.19;100805.55;1690098;83;21582;-81
2021/06/04 00:03:05;;;;;;;;;;;;;;;16.30;47.21;100818.17;1718636;81;21405;-80
2021/06/04 00:05:38;;;;;;;3.85;2.42;;;;;;;16.29;47.20;100814.35;1725320;82;20163;-79
2021/06/04 00:08:05;;;;;;;5.12;2.10;;;;;;;16.25;47.48;100819.86;1721265;81;21109;-80
2021/06/04 00:10:37;;;;;;;4.97;2.00;;;;;;;16.26;47.68;100818.30;1716692;81;21115;-80
2021/06/04 00:13:29;;;;;;;2.08;1.98;;;;;;;16.25;47.60;100815.30;1740312;80;21625;-79
2021/06/04 00:16:18;;;;;;;3.55;2.95;;;;;;;16.24;47.86;100815.53;1755544;80;21582;-80
2021/06/04 00:18:45;;;;;;;1.95;1.85;;;;;;;16.15;48.11;100810.37;1755444;80;20970;-78
2021/06/04 00:21:19;;;;;;;2.40;2.15;;;;;;;16.12;48.03;100816.70;1732869;80;21048;-78
2021/06/04 00:23:46;;;;;;;3.98;2.90;;;;;;;16.11;48.08;100811.03;1762641;80;20973;-78
2021/06/04 00:26:13;;;;;;;3.60;2.52;;;;;;;16.10;48.08;100814.22;1712017;83;21010;-79
2021/06/04 00:28:40;;;;;;;8.40;2.65;;;;;;;16.11;48.07;100803.78;1767450;80;21117;-79
2021/06/04 00:31:08;;;;;;;2.42;2.17;;;;;;;16.10;48.15;100808.84;1744040;81;21100;-81
2021/06/04 00:33:37;;;;;;;3.33;2.70;;;;;;;16.08;48.32;100802.86;1738699;80;21272;-79
2021/06/04 00:36:07;;;;;;;4.97;3.40;;;;;;;16.08;48.49;100810.11;1757665;80;20982;-79
2021/06/04 00:38:35;;;;;;;6.97;2.75;;;;;;;16.06;48.49;100810.84;1745209;81;21144;-79
2021/06/04 00:41:07;;;;;;;5.22;3.08;;;;;;;16.06;48.22;100814.34;1760905;80;21116;-77
2021/06/04 00:43:35;;;;;;;2.33;2.20;;;;;;;16.09;48.47;100814.45;1757443;80;20954;-80
2021/06/04 00:46:07;;;;;;;6.33;2.70;;;;;;;16.10;48.47;100812.06;1695137;81;21057;-78
2021/06/04 00:48:36;;;;;;;6.08;2.50;;;;;;;16.11;48.69;100815.06;1720777;82;21083;-79
2021/06/04 00:51:12;;;;;;;3.72;2.15;;;;;;;16.11;48.61;100813.20;1709144;82;21099;-79
2021/06/04 00:53:41;;;;;;;4.87;2.02;;;;;;;16.09;48.68;100813.93;1703965;82;21683;-81
2021/06/04 00:56:08;;;;;;;5.80;2.40;;;;;;;16.07;48.90;100811.98;1706575;83;21055;-83
2021/06/04 00:58:40;;;;;;;2.00;1.90;;;;;;;16.03;48.97;100808.07;1715611;82;21048;-80
2021/06/04 01:01:10;;;;;;;3.20;2.40;;;;;;;16.01;49.12;100815.53;1731372;79;20992;-78
2021/06/04 01:03:41;;;;;;;6.78;2.92;;;;;;;15.98;49.19;100814.59;1757135;80;21009;-79
2021/06/04 01:06:32;;;;;;;7.70;2.37;;;;;;;15.94;49.33;100814.72;1738463;80;21132;-79
2021/06/04 01:09:35;;;;;;;2.35;2.10;;;;;;;15.89;49.31;100813.99;1758306;80;21526;-80
2021/06/04 01:14:34;;;;;;;3.55;2.60;;;;;;;15.88;49.42;100811.02;1775476;79;23617;-79
2021/06/04 01:17:43;;;;;;;3.42;2.55;;;;;;;15.81;49.49;100812.89;1752645;80;21015;-78
2021/06/04 01:20:24;;;;;;;2.65;2.45;;;;;;;15.80;49.72;100813.09;1711783;82;21049;-80
2021/06/04 01:23:14;;;;;;;3.50;3.10;;;;;;;15.78;50.09;100816.52;1696218;80;21348;-78
2021/06/04 01:25:58;;;;;;;3.92;2.20;;;;;;;15.75;50.03;100814.56;1652325;85;21061;-80
2021/06/04 01:28:38;;;;;;;5.33;2.70;;;;;;;15.75;50.44;100815.91;1670863;84;21073;-79
2021/06/04 01:31:23;;;;;;;4.00;2.67;;;;;;;15.71;50.57;100819.20;1667219;84;21121;-79
2021/06/04 01:34:13;;;;;;;3.42;3.12;;;;;;;15.67;50.72;100817.45;1645100;85;21075;-79
2021/06/04 01:36:49;;;;;;;6.72;2.62;;;;;;;15.66;50.83;100821.16;1651234;86;21133;-80
2021/06/04 01:39:24;;;;;;;4.67;2.70;;;;;;;15.66;50.62;100819.00;1645261;85;21066;-80
2021/06/04 01:41:56;;;;;;;3.20;2.60;;;;;;;15.65;50.61;100821.37;1665382;84;21515;-79
2021/06/04 01:44:28;;;;;;;3.47;3.17;;;;;;;15.65;50.49;100818.68;1634339;86;21259;-79
2021/06/04 01:47:02;;;;;;;4.78;3.27;;;;;;;15.65;50.67;100821.37;1653968;85;22153;-79
2021/06/04 01:49:34;;;;;;;2.87;2.67;;;;;;;15.64;50.89;100817.86;1655103;85;21053;-79
2021/06/04 01:52:10;;;;;;;4.67;3.20;;;;;;;15.63;50.98;100820.75;1619062;87;21626;-80
2021/06/04 01:54:46;;;;;;;3.95;3.12;;;;;;;15.62;51.14;100823.16;1655957;85;21623;-80
2021/06/04 01:57:31;;;;;;;4.80;2.80;;;;;;;15.61;51.29;100823.64;1652653;84;21012;-79
2021/06/04 02:00:00;;;;;;;3.75;2.95;;;;;;;15.58;50.91;100830.27;1633607;85;21142;-79
2021/06/04 02:02:45;;;;;;;3.72;3.08;;;;;;;15.54;50.91;100827.70;1668188;84;21077;-79
2021/06/04 02:05:21;;;;;;;3.67;2.90;;;;;;;15.51;50.94;100825.95;1667335;84;21108;-80
2021/06/04 02:07:49;;;;;;;2.70;2.58;;;;;;;15.50;50.83;100828.31;1670583;84;20997;-79
2021/06/04 02:10:21;;;;;;;2.67;2.47;;;;;;;15.47;50.83;100830.91;1668191;84;21096;-79
2021/06/04 02:12:50;;;;;;;3.08;2.80;;;;;;;15.47;50.90;100828.22;1639553;85;21077;-79
2021/06/04 02:15:29;;;;;;;3.47;2.67;;;;;;;15.46;50.90;100832.45;1662173;84;22491;-79
2021/06/04 02:18:28;;;;;;;4.15;2.85;;;;;;;15.42;51.35;100830.70;1661649;84;21540;-79
2021/06/04 02:21:04;;;;;;;2.98;2.75;;;;;;;15.42;51.06;100832.57;1666975;84;21049;-78
2021/06/04 02:23:43;;;;;;;3.67;2.58;;;;;;;15.41;51.11;100833.59;1680074;83;21052;-80
2021/06/04 02:26:27;;;;;;;3.62;3.33;;;;;;;15.41;51.17;100828.22;1675473;84;21092;-78
2021/06/04 02:29:03;;;;;;;3.08;2.67;;;;;;;15.42;51.06;100829.88;1674964;84;21054;-79
2021/06/04 02:31:41;;;;;;;5.33;3.30;;;;;;;15.41;51.17;100824.19;1682747;84;21072;-79
2021/06/04 02:34:19;;;;;;;4.78;3.47;;;;;;;15.42;51.08;100819.14;1679745;83;20990;-81
2021/06/04 02:36:55;;;;;;;5.08;2.83;;;;;;;15.44;51.04;100823.78;1690321;83;21555;-79
2021/06/04 02:39:33;;;;;;;4.28;3.20;;;;;;;15.44;51.03;100824.59;1683010;84;20989;-79
2021/06/04 02:42:12;;;;;;;3.20;2.65;;;;;;;15.46;51.24;100829.24;1676669;84;21134;-78
2021/06/04 02:44:48;;;;;;;3.17;2.90;;;;;;;15.47;50.97;100823.37;1676632;83;21431;-78
2021/06/04 02:47:29;;;;;;;8.70;2.87;;;;;;;15.46;51.06;100833.80;1688020;83;21097;-79
2021/06/04 02:49:55;;;;;;;2.95;2.77;;;;;;;15.46;51.11;100826.56;1640679;85;21086;-79
2021/06/04 02:52:33;;;;;;;4.40;3.30;;;;;;;15.47;51.16;100831.44;1689491;83;21046;-79
2021/06/04 02:55:07;;;;;;;6.75;3.42;;;;;;;15.48;51.07;100835.76;1688900;83;21038;-79
2021/06/04 02:57:38;;;;;;;3.58;3.25;;;;;;;15.46;51.20;100830.59;1687343;83;21060;-79
2021/06/04 03:00:22;;;;;;;2.95;2.75;;;;;;;15.48;51.11;100833.08;1645791;85;21710;-80
2021/06/04 03:02:49;;;;;;;6.05;3.02;;;;;;;15.50;51.22;100830.50;1586106;88;21596;-79
2021/06/04 03:05:24;;;;;;;7.30;2.98;;;;;;;15.53;51.12;100835.97;1585713;89;21029;-80
2021/06/04 03:07:55;;;;;;;5.17;2.42;;;;;;;15.57;51.02;100835.85;1615961;87;21033;-79
2021/06/04 03:10:33;;;;;;;5.22;3.12;;;;;;;15.61;51.28;100835.73;1611478;88;21605;-80
2021/06/04 03:13:06;;;;;;;3.55;3.02;;;;;;;15.64;50.75;100836.67;1647317;84;21349;-79
2021/06/04 03:15:40;;;;;;;2.67;2.47;;;;;;;15.71;50.49;100837.49;1645642;86;21032;-80
2021/06/04 03:18:12;;;;;;;4.00;2.27;;;;;;;15.77;50.61;100839.89;1612082;87;21057;-80
2021/06/04 03:20:44;;;;;;;7.08;3.62;;;;;;;15.80;50.67;100835.94;1606115;88;21173;-80
2021/06/04 03:23:16;;;;;;;2.75;2.52;;;;;;;15.86;50.17;100841.81;1614161;87;21084;-79
2021/06/04 03:25:50;;;;;;;4.42;3.10;;;;;;;15.91;50.17;100835.30;1583197;89;21048;-79
2021/06/04 03:28:23;;;;;;;2.20;2.05;;;;;;;15.98;50.08;100829.38;1609375;87;21023;-79
2021/06/04 03:30:51;;;;;;;2.20;2.10;;;;;;;16.07;49.87;100834.84;1577566;89;21531;-79
2021/06/04 03:33:27;;;;;;;4.08;2.60;;;;;;;16.14;50.18;100835.64;1586190;88;21085;-79
2021/06/04 03:35:55;;;;;;;6.97;3.17;;;;;;;16.21;50.23;100839.63;1605174;87;21043;-83
2021/06/04 03:38:22;;;;;;;4.40;2.47;;;;;;;16.25;49.84;100839.50;1575572;89;21091;-79
2021/06/04 03:40:51;;;;;;;3.80;2.12;;;;;;;16.29;49.56;100843.94;1604027;87;22299;-80
2021/06/04 03:43:21;;;;;;;3.85;2.22;;;;;;;16.34;49.67;100839.57;1606957;88;21096;-84
2021/06/04 03:45:48;;;;;;;6.08;2.92;;;;;;;16.43;49.46;100837.47;1614701;85;21495;-78
2021/06/04 03:48:21;;;;;;;4.50;2.58;;;;;;;16.60;49.47;100834.28;1606698;87;21089;-79
2021/06/04 03:50:52;;;;;;;3.40;2.58;;;;;;;16.76;48.65;100836.44;1588780;88;21025;-78
2021/06/04 03:53:20;;;;;;;2.02;1.92;;;;;;;17.01;48.57;100835.17;1589693;89;21087;-79
2021/06/04 03:55:47;;;;;;;5.90;2.72;;;;;;;17.39;47.63;100833.42;1587447;87;21076;-77
2021/06/04 03:58:15;;;;;;;6.50;2.37;;;;;;;17.67;46.45;100831.59;1612631;87;21062;-79
2021/06/04 04:00:52;;;;;;;8.68;2.37;;;;;;;17.89;46.21;100838.73;1609582;87;21106;-80
2021/06/04 04:03:24;;;;;;;7.28;3.35;;;;;;;18.03;46.05;100832.68;1616723;87;21566;-79
2021/06/04 04:05:50;;;;;;;2.42;2.22;;;;;;;18.03;46.05;100832.68;1611613;87;21081;-80
2021/06/04 04:08:21;;;;;;;5.03;2.37;;;;;;;18.03;45.79;100830.80;1584202;88;21071;-80
2021/06/04 04:10:48;;;;;;;4.33;2.27;;;;;;;17.97;45.97;100836.26;1600773;88;21119;-79
2021/06/04 04:13:17;;;;;;;4.42;2.62;;;;;;;17.87;46.40;100837.60;1598368;88;21078;-79
2021/06/04 04:15:44;;;;;;;5.45;2.27;;;;;;;17.78;46.63;100836.25;1596386;88;21161;-78
2021/06/04 04:18:11;;;;;;;4.25;2.52;;;;;;;17.64;46.84;100835.54;1615343;86;21592;-79
2021/06/04 04:20:44;;;;;;;3.27;2.45;;;;;;;17.59;47.21;100840.77;1622647;86;21062;-80
2021/06/04 04:23:19;;;;;;;5.70;2.75;;;;;;;17.58;47.39;100843.18;1606437;84;21655;-79
2021/06/04 04:25:46;;;;;;;4.28;3.15;;;;;;;17.62;47.53;100840.87;1570613;90;21027;-80
2021/06/04 04:28:17;;;;;;;3.17;2.83;;;;;;;17.60;47.02;100842.96;1617321;87;21054;-79
2021/06/04 04:30:43;;;;;;;3.58;2.95;;;;;;;17.54;47.55;100842.48;1614119;87;21079;-78
2021/06/04 04:33:11;;;;;;;5.42;3.00;;;;;;;17.55;47.10;100845.48;1617389;86;21090;-80
2021/06/04 04:35:38;;;;;;;5.12;2.60;;;;;;;17.67;47.09;100840.50;1627226;87;21066;-79
2021/06/04 04:38:06;;;;;;;3.37;2.90;;;;;;;17.74;46.59;100841.77;1626451;87;21057;-79
2021/06/04 04:40:37;;;;;;;7.97;3.37;;;;;;;17.88;46.41;100838.45;1620718;87;21135;-80
2021/06/04 04:43:07;;;;;;;6.45;2.70;;;;;;;17.88;46.41;100838.45;1607031;87;20989;-81
2021/06/04 04:45:34;;;;;;;3.80;2.42;;;;;;;17.98;46.35;100848.17;1601571;87;21128;-81
2021/06/04 04:48:02;;;;;;;7.08;3.05;;;;;;;18.41;45.38;100851.82;1614065;87;21096;-79
2021/06/04 04:50:30;;;;;;;5.17;2.42;;;;;;;19.41;43.95;100836.82;1587268;87;21088;-81
2021/06/04 04:52:57;;;;;;;8.38;3.02;;;;;;;19.41;43.95;100836.82;1610040;87;21571;-81
2021/06/04 04:55:27;;;;;;;7.12;2.52;;;;;;;19.81;43.09;100840.17;1618176;86;21203;-79
2021/06/04 04:57:53;;;;;;;4.12;2.90;;;;;;;20.09;42.50;100841.30;1673921;84;21146;-81
2021/06/04 05:00:25;;;;;;;3.30;2.52;;;;;;;20.19;42.49;100833.37;1671610;83;21085;-80
2021/06/04 05:02:52;;;;;;;2.85;2.08;;;;;;;20.18;42.75;100842.58;1666124;84;21033;-80
2021/06/04 05:05:22;;;;;;;3.65;2.65;;;;;;;20.32;42.36;100842.57;1634120;86;21049;-80
2021/06/04 05:07:49;;;;;;;2.12;1.52;;;;;;;20.45;41.24;100843.36;1658277;84;21070;-80
2021/06/04 05:10:15;;;;;;;2.80;2.02;;;;;;;20.32;41.29;100843.92;1656419;84;21164;-79
2021/06/04 05:12:42;;;;;;;6.67;2.22;;;;;;;20.21;41.82;100850.20;1664909;84;21153;-81
2021/06/04 05:15:14;;;;;;;4.75;2.62;;;;;;;20.10;42.15;100846.98;1684767;85;21892;-80
2021/06/04 05:17:43;;;;;;;3.87;2.55;;;;;;;20.31;41.75;100849.61;1683981;84;21915;-81
2021/06/04 05:20:12;;;;;;;4.90;2.33;;;;;;;20.43;42.25;100845.77;1689220;84;21071;-79
2021/06/04 05:22:40;;;;;;;3.75;2.05;;;;;;;20.76;43.07;100844.80;1685840;80;20965;-80
2021/06/04 05:25:11;;;;;;;3.12;1.90;;;;;;;21.04;40.72;100848.50;1688596;81;21169;-81
2021/06/04 05:27:37;;;;;;;5.83;2.42;;;;;;;21.23;40.55;100845.00;1679388;84;21115;-80
2021/06/04 05:30:10;;;;;;;2.75;2.30;;;;;;;21.50;40.64;100839.23;1680172;84;21327;-86
2021/06/04 05:32:38;;;;;;;3.67;1.82;;;;;;;21.84;39.40;100843.23;1684593;84;21076;-85
2021/06/04 05:35:06;;;;;;;3.92;1.67;;;;;;;21.94;37.93;100839.82;1695783;83;21031;-86
2021/06/04 05:37:32;;;;;;;2.25;1.98;;;;;;;21.93;37.71;100844.44;1702366;84;21565;-86
2021/06/04 05:40:02;;;;;;;1.92;1.77;;;;;;;22.00;38.06;100847.49;1711301;83;21512;-86
2021/06/04 05:42:29;;;;;;;4.42;1.72;;;;;;;22.30;37.19;100846.56;1698051;83;21043;-85
2021/06/04 05:44:55;;;;;;;4.85;1.50;;;;;;;22.61;36.65;100841.98;1705802;83;21108;-85
2021/06/04 05:47:23;;;;;;;6.30;2.27;;;;;;;22.58;36.61;100850.09;1698427;83;21614;-87
2021/06/04 05:49:50;;;;;;;;;;;;;;;22.44;36.68;100851.05;1705228;83;21088;-87
2021/06/04 05:52:17;;;;;;;1.67;1.57;;;;;;;22.21;36.70;100844.48;1699165;83;20150;-86
2021/06/04 05:54:47;;;;;;;1.37;1.12;;;;;;;22.08;38.04;100848.43;1702716;83;21042;-87
2021/06/04 05:57:16;;;;;;;3.25;1.20;;;;;;;22.16;37.74;100842.55;1726218;81;21077;-89
2021/06/04 05:59:42;;;;;;;3.35;1.35;;;;;;;22.29;37.22;100845.45;1717561;81;21065;-91
2021/06/04 06:02:10;;;;;;;3.98;1.17;;;;;;;22.35;37.00;100840.34;1702462;83;21613;-89
2021/06/04 06:04:40;;;;;;;3.77;1.67;;;;;;;22.55;37.36;100846.55;1696285;83;21054;-89
2021/06/04 06:07:07;;;;;;;2.37;0.70;;;;;;;22.87;35.90;100843.05;1693242;84;21077;-82
2021/06/04 06:09:35;;;;;;;3.95;1.67;;;;;;;22.94;35.28;100848.56;1692502;83;21101;-82
2021/06/04 06:12:02;;;;;;;3.85;1.32;;;;;;;22.85;36.05;100850.10;1698724;83;21618;-82
2021/06/04 06:14:29;;;;;;;6.72;1.35;;;;;;;22.69;35.43;100843.69;1684001;83;21108;-85
2021/06/04 06:16:56;;;;;;;4.67;1.17;;;;;;;22.52;35.67;100811.73;1688833;83;21555;-83
2021/06/04 06:19:22;;;;;;;4.70;1.55;;;;;;;22.91;35.66;100845.53;1693223;83;21049;-84
2021/06/04 06:21:52;;;;;;;3.22;1.65;;;;;;;23.18;35.48;100841.97;1696306;83;20999;-83
2021/06/04 06:24:19;;;;;;;1.98;1.52;;;;;;;23.40;34.73;100849.48;1697504;82;21018;-79
2021/06/04 06:26:48;;;;;;;3.95;1.52;;;;;;;23.36;34.25;100847.53;1708204;82;21016;-81
2021/06/04 06:29:16;;;;;;;2.62;1.05;;;;;;;23.23;34.38;100839.30;1708470;82;21578;-82
2021/06/04 06:31:48;;;;;;;5.12;1.40;;;;;;;23.11;35.24;100833.50;1708450;82;21147;-80
2021/06/04 06:34:15;;;;;;;20.23;1.52;;;;;;;22.92;35.67;100833.56;1684315;81;20986;-81
2021/06/04 06:36:44;;;;;;;2.45;1.40;;;;;;;22.97;35.01;100838.24;1652167;85;21048;-80
2021/06/04 06:39:24;;;;;;;2.92;1.45;;;;;;;23.25;34.74;100834.42;1629166;86;20978;-81
2021/06/04 06:41:53;;;;;;;3.42;1.55;;;;;;;23.29;34.73;100839.61;1608745;88;21198;-84
2021/06/04 06:44:20;;;;;;;4.53;1.27;;;;;;;23.33;35.00;100834.73;1634726;84;21075;-84
2021/06/04 06:46:48;;;;;;;6.70;1.15;;;;;;;23.48;34.29;100837.28;1624532;86;21125;-83
2021/06/04 06:49:16;;;;;;;4.65;1.50;;;;;;;23.57;33.59;100830.83;1640319;86;21928;-84
2021/06/04 06:51:42;;;;;;;2.72;1.20;;;;;;;23.56;33.24;100831.89;1641493;86;21045;-84
2021/06/04 06:54:15;;;;;;;5.28;0.78;;;;;;;23.60;32.69;100826.20;1644408;86;21113;-83
2021/06/04 06:56:45;;;;;;;1.30;0.93;;;;;;;23.58;32.14;100829.72;1644082;84;20998;-83
2021/06/04 06:59:12;;;;;;;1.55;1.30;;;;;;;23.54;32.69;100833.51;1641197;86;21625;-84
2021/06/04 07:01:40;;;;;;;1.52;0.60;;;;;;;23.54;32.95;100829.42;1629772;86;21053;-82
2021/06/04 07:04:08;;;;;;;2.60;0.65;;;;;;;23.57;31.71;100836.27;1625973;86;21060;-82
2021/06/04 07:06:38;;;;;;;2.45;0.57;;;;;;;23.51;31.60;100840.30;1628544;86;21105;-81
2021/06/04 07:09:08;;;;;;;3.30;0.70;;;;;;;23.54;32.04;100829.42;1622970;86;21510;-82
2021/06/04 07:11:39;;;;;;;3.62;1.07;;;;;;;23.60;31.64;100826.20;1632772;85;21041;-82
2021/06/04 07:14:09;;;;;;;1.32;1.00;;;;;;;23.59;31.05;100825.38;1638341;86;21164;-82
2021/06/04 07:16:38;;;;;;;3.67;0.90;;;;;;;23.69;30.95;100829.51;1636398;86;21052;-82
2021/06/04 07:19:06;;;;;;;2.37;0.30;;;;;;;23.90;29.92;100823.68;1638938;86;21033;-83
2021/06/04 07:21:37;;;;;;;5.42;0.75;;;;;;;23.97;30.39;100810.36;1637396;86;21180;-81
2021/06/04 07:24:04;;;;;;;1.95;0.60;;;;;;;24.01;29.88;100814.98;1629093;84;21199;-81
2021/06/04 07:26:30;;;;;;;4.25;0.68;;;;;;;24.10;28.78;100815.30;1642617;85;21140;-82
2021/06/04 07:29:01;;;;;;;4.37;0.65;;;;;;;23.97;28.10;100815.25;1644346;87;21035;-83
2021/06/04 07:31:25;;;;;;;2.72;0.70;;;;;;;23.89;27.87;100811.69;1640733;85;21042;-84
2021/06/04 07:33:55;;;;;;;4.85;0.30;;;;;;;23.89;27.96;100810.33;1643387;86;20986;-82
2021/06/04 07:36:27;;;;;;;2.52;0.47;;;;;;;23.71;27.49;100805.59;1642594;85;21025;-83
2021/06/04 07:38:55;;;;;;;3.30;0.30;;;;;;;23.57;26.35;100799.53;1649079;85;21092;-84
2021/06/04 07:41:22;;;;;;;7.30;0.80;;;;;;;23.43;26.01;100818.20;1645981;85;21097;-82
2021/06/04 07:43:51;;;;;;;2.83;0.50;;;;;;;23.39;26.08;100830.14;1621922;86;21567;-83
2021/06/04 07:46:21;;;;;;;3.05;0.40;;;;;;;23.22;26.61;100822.69;1645303;86;21658;-83
2021/06/04 07:48:48;;;;;;;2.92;0.62;;;;;;;22.84;27.74;100827.25;1644132;85;21574;-83
2021/06/04 07:51:20;;;;;;;0.75;0.25;;;;;;;22.40;28.57;100812.44;1637697;85;21539;-84
2021/06/04 07:53:47;;;;;;;1.35;0.53;;;;;;;22.12;29.15;100810.20;1641192;85;21078;-83
2021/06/04 07:56:16;;;;;;;7.20;0.93;;;;;;;22.04;28.52;100807.91;1640670;84;22250;-83
2021/06/04 07:58:46;;;;;;;0.78;0.30;;;;;;;22.11;28.89;100809.90;1637230;85;21077;-84
2021/06/04 08:01:12;;;;;;;2.27;0.40;;;;;;;22.21;27.89;100797.81;1644980;85;21147;-83
2021/06/04 08:03:41;;;;;;;3.77;0.40;;;;;;;22.27;28.33;100802.25;1643076;85;21067;-85
2021/06/04 08:06:09;;;;;;;1.47;0.45;;;;;;;22.23;28.50;100811.95;1642385;85;21057;-85
2021/06/04 08:08:40;;;;;;;5.62;0.50;;;;;;;22.12;28.76;100812.91;1635594;85;21378;-82
2021/06/04 08:11:11;;;;;;;2.83;0.68;;;;;;;22.10;28.95;100808.27;1640877;85;21137;-84
2021/06/04 08:13:38;;;;;;;6.87;0.90;;;;;;;22.19;29.12;100793.70;1646170;85;21098;-85
2021/06/04 08:16:11;;;;;;;3.85;0.90;;;;;;;22.26;29.20;100801.14;1642183;85;21083;-84
2021/06/04 08:18:39;;;;;;;2.80;0.50;;;;;;;22.16;28.79;100799.92;1646565;85;21619;-83
2021/06/04 08:21:14;;;;;;;2.12;0.70;;;;;;;21.97;29.25;100800.79;1647305;85;21116;-82
2021/06/04 08:23:44;;;;;;;6.17;0.55;;;;;;;21.94;30.15;100798.59;1650581;85;21638;-85
2021/06/04 08:26:16;;;;;;;8.08;0.60;;;;;;;21.95;29.95;100795.34;1645747;85;22299;-84
2021/06/04 08:28:43;;;;;;;5.45;0.40;;;;;;;22.00;29.86;100783.71;1646906;87;21381;-82
2021/06/04 08:31:12;;;;;;;2.83;0.20;;;;;;;22.09;29.29;100811.50;1647183;85;21153;-83
2021/06/04 08:33:41;;;;;;;2.58;0.47;;;;;;;22.01;29.08;100798.94;1646954;84;21614;-84
2021/06/04 08:36:13;;;;;;;2.62;0.30;;;;;;;21.77;29.35;100801.38;1648073;85;21100;-82
2021/06/04 08:38:41;;;;;;;1.27;0.45;;;;;;;21.65;29.82;100800.66;1643019;85;21057;-85
2021/06/04 08:41:49;;;;;;;1.10;0.40;;;;;;;21.52;29.40;100814.03;1645147;85;21100;-84
2021/06/04 08:44:39;;;;;;;3.98;0.42;;;;;;;21.45;29.08;100803.89;1647967;84;21065;-83
2021/06/04 08:47:27;;;;;;;6.40;0.77;;;;;;;21.46;28.96;100794.70;1647212;85;21054;-78
2021/06/04 08:50:08;;;;;;;2.95;0.45;;;;;;;21.55;29.41;100804.05;1644908;87;21065;-85
2021/06/04 08:53:00;;;;;;;3.40;0.82;;;;;;;21.60;28.76;100806.00;1640349;85;21631;-79
2021/06/04 08:55:41;;;;;;;4.75;0.57;;;;;;;21.69;29.63;100787.41;1646647;84;21159;-80
2021/06/04 08:58:59;;;;;;;3.67;0.85;;;;;;;21.80;28.55;100788.38;1643231;85;21074;-82
2021/06/04 09:01:42;;;;;;;4.47;0.60;;;;;;;21.84;28.54;100781.36;1644433;85;21653;-84
2021/06/04 09:04:12;;;;;;;4.55;0.70;;;;;;;21.85;28.53;100788.41;1647066;85;21694;-85
2021/06/04 09:06:44;;;;;;;3.98;0.40;;;;;;;21.82;28.25;100804.67;1648600;85;21547;-87
2021/06/04 09:09:40;;;;;;;7.30;0.95;;;;;;;21.85;27.92;100785.19;1648677;86;21775;-89
2021/06/04 09:12:14;;;;;;;7.65;0.50;;;;;;;21.88;28.27;100798.23;1647540;84;21069;-88
2021/06/04 09:14:42;;;;;;;5.22;0.65;;;;;;;21.90;27.57;100792.02;1647032;85;21611;-88
2021/06/04 09:17:21;;;;;;;6.35;0.68;;;;;;;21.94;27.77;100785.55;1649479;85;21571;-87
2021/06/04 09:20:12;;;;;;;5.58;0.70;;;;;;;21.76;27.81;100759.56;1648188;85;21049;-87
2021/06/04 09:22:44;;;;;;;2.47;0.20;;;;;;;22.02;27.93;100784.27;1621365;86;22152;-86
2021/06/04 09:25:15;;;;;;;6.75;0.60;;;;;;;21.99;27.93;100778.02;1641070;85;21034;-90
2021/06/04 09:27:47;;;;;;;4.58;0.37;;;;;;;21.91;28.02;100789.59;1630597;85;21029;-88
2021/06/04 09:30:27;;;;;;;3.67;0.85;;;;;;;21.86;28.14;100786.81;1649535;85;21133;-89
2021/06/04 09:33:19;;;;;;;2.80;0.37;;;;;;;21.84;28.08;100782.17;1644883;85;21101;-88
2021/06/04 09:36:09;;;;;;;4.22;0.75;;;;;;;21.91;28.06;100794.21;1653347;86;21054;-87
2021/06/04 09:38:54;;;;;;;3.47;0.45;;;;;;;21.94;28.41;100779.60;1648863;85;21098;-87
2021/06/04 09:41:31;;;;;;;4.33;0.93;;;;;;;21.96;28.54;100771.18;1648214;85;21110;-89
2021/06/04 09:44:20;;;;;;;3.17;0.57;;;;;;;21.99;28.58;100787.52;1645263;85;21112;-87
2021/06/04 09:46:58;;;;;;;1.37;0.30;;;;;;;21.94;28.57;100779.60;1634242;85;21543;-90
2021/06/04 09:49:46;;;;;;;2.02;0.30;;;;;;;21.86;28.18;100784.09;1650352;85;21109;-90
2021/06/04 09:52:28;;;;;;;3.42;0.30;;;;;;;21.78;27.61;100780.48;1650091;86;21128;-87
2021/06/04 09:55:12;;;;;;;4.65;0.35;;;;;;;21.75;28.08;100769.58;1592461;87;21019;-89
2021/06/04 09:58:10;;;;;;;3.30;0.20;;;;;;;21.82;27.76;100771.30;1652823;85;21002;-86
2021/06/04 10:00:44;;;;;;;1.47;0.40;;;;;;;21.90;27.48;100768.94;1622995;85;20971;-89
2021/06/04 10:03:43;;;;;;;1.95;0.40;;;;;;;22.02;27.74;100758.48;1642202;86;21030;-89
2021/06/04 10:06:37;;;;;;;1.25;0.30;;;;;;;22.18;28.10;100764.92;1639753;86;21050;-89
2021/06/04 10:09:24;;;;;;;6.92;0.28;;;;;;;22.33;27.75;100761.03;1624626;86;21594;-89
2021/06/04 10:12:02;;;;;;;7.42;0.47;;;;;;;22.39;28.31;100767.34;1636121;85;21038;-89
2021/06/04 10:20:46;;;;;;;3.92;0.35;;;;;;;22.53;28.08;100754.44;1648336;85;20158;-92
2021/06/04 10:23:36;;;;;;;5.35;0.82;;;;;;;22.47;27.84;100761.43;1648120;85;21694;-88
2021/06/04 10:26:07;;;;;;;3.95;0.40;;;;;;;22.48;29.28;100757.65;1647808;85;20995;-90
2021/06/04 10:28:44;;;;;;;2.42;0.13;;;;;;;22.45;27.62;100763.07;1639692;85;21113;-89
2021/06/04 10:31:42;;;;;;;3.05;0.28;;;;;;;22.44;26.97;100763.32;1650905;86;21070;-89
2021/06/04 10:34:26;;;;;;;5.00;0.55;;;;;;;22.38;26.97;100757.53;1651312;85;21663;-87
2021/06/04 10:36:56;;;;;;;3.52;0.60;;;;;;;22.37;27.41;100758.63;1652456;85;21136;-90
2021/06/04 10:39:43;;;;;;;2.15;0.42;;;;;;;22.42;27.89;100755.42;1646601;87;21727;-88
2021/06/04 10:42:45;;;;;;;9.60;0.62;;;;;;;22.42;28.26;100754.61;1639346;86;21420;-89
2021/06/04 10:45:34;;;;;;;5.67;0.60;;;;;;;22.34;28.63;100755.35;1633963;86;21041;-89
2021/06/04 10:48:37;;;;;;;2.92;0.37;;;;;;;22.26;29.09;100758.51;1663189;85;21015;-90
2021/06/04 10:51:32;;;;;;;6.40;0.42;;;;;;;22.15;28.72;100760.80;1660086;85;21160;-88
2021/06/04 10:54:36;;;;;;;3.42;0.42;;;;;;;22.01;27.66;100752.25;1660150;85;21132;-87
2021/06/04 10:57:20;;;;;;;1.60;0.30;;;;;;;21.99;27.98;100742.73;1650790;85;21160;-89
2021/06/04 10:59:59;;;;;;;4.65;0.65;;;;;;;22.02;28.33;100749.83;1665311;85;21066;-89
2021/06/04 11:03:16;;;;;;;1.75;0.60;;;;;;;22.08;28.27;100750.70;1618978;86;21588;-89
2021/06/04 11:05:51;;;;;;;6.92;0.42;;;;;;;22.15;28.07;100751.30;1582627;88;21040;-89
2021/06/04 11:08:47;;;;;;;4.53;0.40;;;;;;;22.23;28.07;100756.30;1636170;85;21169;-90
2021/06/04 11:11:37;;;;;;;;;;;;;;;22.26;27.49;100762.58;1659506;85;21042;-89
2021/06/04 11:14:25;;;;;;;2.37;0.70;;;;;;;22.28;28.03;100750.95;1658085;85;20558;-89
2021/06/04 11:17:28;;;;;;;4.20;0.57;;;;;;;22.26;28.08;100758.51;1657982;85;21062;-89
2021/06/04 11:20:18;;;;;;;4.33;0.50;;;;;;;22.29;27.92;100749.86;1652772;85;21012;-90
2021/06/04 11:23:07;;;;;;;2.92;0.47;;;;;;;22.37;28.47;100745.05;1660736;83;21074;-90
2021/06/04 11:25:52;;;;;;;8.13;0.65;;;;;;;22.45;27.64;100747.28;1660992;85;21126;-89
2021/06/04 11:29:05;;;;;;;2.50;0.37;;;;;;;22.39;29.17;100745.06;1657539;85;21010;-88
2021/06/04 11:32:03;;;;;;;4.15;0.20;;;;;;;22.30;29.17;100754.75;1628210;86;21110;-89
2021/06/04 11:35:00;;;;;;;3.50;0.37;;;;;;;22.24;28.86;100751.67;1662651;85;21030;-90
2021/06/04 11:38:10;;;;;;;3.83;0.88;;;;;;;22.21;29.10;100758.45;1659960;85;21129;-91
2021/06/04 11:40:46;;;;;;;2.58;0.20;;;;;;;22.18;28.26;100751.34;1664160;85;21164;-89
2021/06/04 11:43:18;;;;;;;8.43;0.85;;;;;;;22.08;28.21;100754.78;1663697;85;21078;-91
2021/06/04 11:45:47;;;;;;;2.67;0.37;;;;;;;22.05;28.83;100753.38;1664832;84;21054;-90
2021/06/04 11:48:31;;;;;;;4.08;0.60;;;;;;;22.07;28.73;100757.20;1641480;86;21050;-89
2021/06/04 11:51:22;;;;;;;5.08;0.68;;;;;;;22.07;29.09;100751.77;1663337;85;21034;-90
2021/06/04 11:54:21;;;;;;;2.83;0.10;;;;;;;22.12;27.76;100742.33;1621038;87;21069;-91
2021/06/04 11:57:00;;;;;;;4.17;0.30;;;;;;;22.16;27.75;100744.81;1651952;84;21054;-88
2021/06/04 11:59:56;;;;;;;1.90;0.20;;;;;;;22.12;27.77;100747.77;1664120;85;21325;-92
2021/06/04 12:02:45;;;;;;;4.90;0.40;;;;;;;21.93;27.83;100750.00;1656690;85;21060;-92
2021/06/04 12:05:30;;;;;;;3.55;0.68;;;;;;;21.84;27.94;100744.73;1654958;85;21642;-91
2021/06/04 12:08:27;;;;;;;3.60;0.60;;;;;;;21.83;28.18;100741.20;1663247;85;21162;-90
2021/06/04 12:11:03;;;;;;;1.02;0.40;;;;;;;21.87;28.82;100743.69;1662020;85;21728;-90
2021/06/04 12:13:46;;;;;;;4.50;0.80;;;;;;;21.90;29.50;100730.14;1654547;85;21111;-89